createdAt,value
2023-05-01T00:01:35.941Z,56.34
2023-05-01T00:04:22.595Z,56.43
2023-05-01T00:07:07.838Z,57.30
2023-05-01T00:09:53.501Z,56.79
2023-05-01T00:12:39.820Z,57.48
2023-05-01T00:15:25.468Z,57.74
2023-05-01T00:18:10.917Z,58.80
2023-05-01T00:20:56.276Z,59.17
2023-05-01T00:23:41.728Z,59.94
2023-05-01T00:26:35.194Z,59.98
2023-05-01T00:29:21.665Z,59.51
2023-05-01T00:32:07.225Z,59.94
2023-05-01T00:34:52.989Z,60.48
2023-05-01T00:37:38.532Z,60.56
2023-05-01T00:40:23.830Z,61.26
2023-05-01T00:43:10.157Z,61.31
2023-05-01T00:45:56.272Z,60.97
2023-05-01T00:48:42.259Z,61.08
2023-05-01T00:51:29.562Z,60.52
2023-05-01T00:54:15.720Z,60.08
2023-05-01T00:57:01.548Z,60.19
2023-05-01T00:59:47.542Z,59.98
2023-05-01T01:02:33.127Z,59.82
2023-05-01T01:05:24.495Z,58.86
2023-05-01T01:08:19.579Z,58.56
2023-05-01T01:11:49.660Z,58.60
2023-05-01T01:14:58.679Z,58.57
2023-05-01T01:18:06.743Z,58.83
2023-05-01T01:21:07.224Z,58.21
2023-05-01T01:24:08.097Z,59.04
2023-05-01T01:27:07.882Z,59.62
2023-05-01T01:30:20.790Z,59.95
2023-05-01T01:33:40.668Z,59.85
2023-05-01T01:36:40.248Z,59.63
2023-05-01T01:40:01.346Z,59.63
2023-05-01T01:43:04.600Z,59.04
2023-05-01T01:45:59.227Z,58.88
2023-05-01T01:48:50.262Z,58.50
2023-05-01T01:51:37.989Z,59.08
2023-05-01T01:54:33.049Z,59.33
2023-05-01T01:57:21.095Z,58.17
2023-05-01T02:00:11.184Z,58.26
2023-05-01T02:03:03.663Z,58.62
2023-05-01T02:05:52.162Z,58.41
2023-05-01T02:08:38.358Z,57.51
2023-05-01T02:11:27.253Z,57.90
2023-05-01T02:14:15.020Z,58.27
2023-05-01T02:17:01.937Z,58.70
2023-05-01T02:19:48.422Z,58.49
2023-05-01T02:22:34.653Z,58.63
2023-05-01T02:25:20.114Z,57.84
2023-05-01T02:28:13.038Z,57.65
2023-05-01T02:30:59.789Z,57.86
2023-05-01T02:33:46.633Z,57.97
2023-05-01T02:36:33.563Z,58.53
2023-05-01T02:39:19.280Z,58.75
2023-05-01T02:42:06.360Z,58.55
2023-05-01T02:45:04.179Z,59.27
2023-05-01T02:47:54.671Z,60.12
2023-05-01T02:50:43.509Z,60.09
2023-05-01T02:53:29.510Z,59.70
2023-05-01T02:56:22.099Z,59.76
2023-05-01T02:59:08.002Z,60.07
2023-05-01T03:01:56.831Z,59.45
2023-05-01T03:04:43.868Z,60.72
2023-05-01T03:07:35.360Z,60.99
2023-05-01T03:10:21.202Z,60.92
2023-05-01T03:13:06.722Z,61.76
2023-05-01T03:15:52.296Z,61.54
2023-05-01T03:18:39.437Z,61.79
2023-05-01T03:21:25.025Z,61.92
2023-05-01T03:24:10.954Z,61.93
2023-05-01T03:26:57.558Z,61.72
2023-05-01T03:29:47.162Z,61.76
2023-05-01T03:32:33.481Z,62.48
2023-05-01T03:35:20.207Z,62.89
2023-05-01T03:38:06.239Z,62.82
2023-05-01T03:41:14.925Z,63.05
2023-05-01T03:44:15.591Z,62.96
2023-05-01T03:47:04.815Z,62.61
2023-05-01T03:49:58.765Z,62.63
2023-05-01T03:52:44.500Z,62.64
2023-05-01T03:55:34.838Z,62.73
2023-05-01T03:58:22.324Z,62.62
2023-05-01T04:01:08.615Z,62.72
2023-05-01T04:04:02.378Z,63.26
2023-05-01T04:06:51.700Z,63.32
2023-05-01T04:09:37.408Z,62.98
2023-05-01T04:12:22.716Z,63.08
2023-05-01T04:15:09.959Z,63.37
2023-05-01T04:17:56.882Z,63.41
2023-05-01T04:20:42.687Z,62.74
2023-05-01T04:23:31.653Z,62.88
2023-05-01T04:26:21.001Z,62.65
2023-05-01T04:29:06.900Z,63.04
2023-05-01T04:31:52.424Z,62.83
2023-05-01T04:34:39.135Z,61.68
2023-05-01T04:37:27.095Z,60.80
2023-05-01T04:40:15.441Z,60.57
2023-05-01T04:43:04.525Z,60.78
2023-05-01T04:45:58.469Z,61.15
2023-05-01T04:48:44.334Z,59.63
2023-05-01T04:51:35.448Z,59.96
2023-05-01T04:54:23.616Z,59.91
2023-05-01T04:57:09.940Z,57.60
2023-05-01T04:59:58.357Z,58.09
2023-05-01T05:02:46.408Z,56.74
2023-05-01T05:05:33.810Z,55.78
2023-05-01T05:08:19.815Z,54.24
2023-05-01T05:11:09.943Z,52.45
2023-05-01T05:14:22.215Z,52.63
2023-05-01T05:17:18.794Z,53.17
2023-05-01T05:20:06.206Z,52.14
2023-05-01T05:22:52.290Z,51.43
2023-05-01T05:25:41.590Z,50.87
2023-05-01T05:28:28.361Z,49.39
2023-05-01T05:31:13.962Z,49.48
2023-05-01T05:33:59.409Z,48.72
2023-05-01T05:36:45.063Z,48.43
2023-05-01T05:39:31.632Z,46.88
2023-05-01T05:42:17.308Z,47.58
2023-05-01T05:45:02.740Z,47.66
2023-05-01T05:47:48.819Z,47.18
2023-05-01T05:50:34.801Z,46.85
2023-05-01T05:53:20.652Z,47.02
2023-05-01T05:56:07.401Z,46.05
2023-05-01T05:58:53.072Z,45.53
2023-05-01T06:01:40.426Z,44.82
2023-05-01T06:04:26.116Z,45.25
2023-05-01T06:07:11.514Z,45.59
2023-05-01T06:10:02.844Z,44.83
2023-05-01T06:12:52.364Z,44.74
2023-05-01T06:15:43.795Z,44.67
2023-05-01T06:18:30.594Z,42.97
2023-05-01T06:21:16.342Z,42.07
2023-05-01T06:24:02.595Z,41.28
2023-05-01T06:26:56.363Z,41.81
2023-05-01T06:29:41.918Z,42.67
2023-05-01T06:32:27.385Z,41.62
2023-05-01T06:35:13.445Z,39.57
2023-05-01T06:38:00.217Z,38.62
2023-05-01T06:40:47.535Z,38.67
2023-05-01T06:43:33.638Z,37.11
2023-05-01T06:46:19.101Z,37.46
2023-05-01T06:49:05.597Z,37.33
2023-05-01T06:51:51.448Z,36.59
2023-05-01T06:54:37.125Z,35.34
2023-05-01T06:57:22.591Z,36.42
2023-05-01T07:00:10.730Z,36.52
2023-05-01T07:02:56.128Z,35.91
2023-05-01T07:05:41.995Z,35.20
2023-05-01T07:08:28.305Z,34.97
2023-05-01T07:11:13.959Z,35.29
2023-05-01T07:14:01.488Z,34.38
2023-05-01T07:16:49.079Z,33.33
2023-05-01T07:19:35.266Z,34.06
2023-05-01T07:22:20.801Z,33.92
2023-05-01T07:25:06.670Z,33.53
2023-05-01T07:27:52.780Z,34.06
2023-05-01T07:30:38.418Z,34.53
2023-05-01T07:33:27.222Z,32.58
2023-05-01T07:36:13.282Z,33.53
2023-05-01T07:38:58.559Z,32.84
2023-05-01T07:41:44.243Z,33.72
2023-05-01T07:44:32.600Z,33.04
2023-05-01T07:47:18.858Z,32.98
2023-05-01T07:50:04.667Z,33.07
2023-05-01T07:52:50.318Z,33.20
2023-05-01T07:55:36.112Z,33.83
2023-05-01T07:58:21.573Z,32.70
2023-05-01T08:01:07.291Z,32.18
2023-05-01T08:03:53.100Z,31.58
2023-05-01T08:06:39.033Z,31.90
2023-05-01T08:09:24.608Z,31.43
2023-05-01T08:12:13.409Z,32.35
2023-05-01T08:14:58.696Z,32.44
2023-05-01T08:17:44.160Z,32.90
2023-05-01T08:20:29.756Z,33.40
2023-05-01T08:23:18.758Z,33.89
2023-05-01T08:26:04.206Z,34.46
2023-05-01T08:28:50.170Z,34.43
2023-05-01T08:31:38.023Z,34.86
2023-05-01T08:34:24.156Z,34.41
2023-05-01T08:37:09.693Z,33.88
2023-05-01T08:39:55.877Z,34.09
2023-05-01T08:42:42.629Z,34.57
2023-05-01T08:45:30.815Z,35.26
2023-05-01T08:48:18.798Z,35.05
2023-05-01T08:51:07.938Z,35.84
2023-05-01T08:53:58.252Z,35.54
2023-05-01T08:56:48.827Z,34.55
2023-05-01T08:59:35.763Z,35.30
2023-05-01T09:02:24.553Z,35.20
2023-05-01T09:05:13.676Z,35.67
2023-05-01T09:08:01.865Z,35.71
2023-05-01T09:10:54.151Z,34.94
2023-05-01T09:13:42.788Z,35.86
2023-05-01T09:16:34.028Z,34.67
2023-05-01T09:19:22.680Z,35.67
2023-05-01T09:22:09.770Z,34.04
2023-05-01T09:25:16.810Z,34.56
2023-05-01T09:28:17.672Z,34.17
2023-05-01T09:31:33.706Z,35.36
2023-05-01T09:34:22.036Z,34.05
2023-05-01T09:37:13.368Z,35.37
2023-05-01T09:40:12.794Z,34.94
2023-05-01T09:43:04.483Z,34.36
2023-05-01T09:46:20.281Z,35.12
2023-05-01T09:49:06.656Z,33.38
2023-05-01T09:51:52.504Z,33.55
2023-05-01T09:54:38.220Z,34.11
2023-05-01T09:57:46.225Z,34.79
2023-05-01T10:00:35.118Z,34.38
2023-05-01T10:03:24.310Z,36.99
2023-05-01T10:06:12.349Z,34.92
2023-05-01T10:08:58.558Z,36.95
2023-05-01T10:11:59.454Z,35.29
2023-05-01T10:14:57.875Z,35.58
2023-05-01T10:17:51.396Z,35.56
2023-05-01T10:20:36.991Z,36.73
2023-05-01T10:23:26.084Z,35.36
2023-05-01T10:26:14.727Z,36.57
2023-05-01T10:29:01.973Z,35.82
2023-05-01T10:31:53.074Z,35.63
2023-05-01T10:34:48.446Z,35.42
2023-05-01T10:38:00.985Z,35.70
2023-05-01T10:40:50.952Z,38.28
2023-05-01T10:43:36.745Z,38.82
2023-05-01T10:46:24.282Z,38.24
2023-05-01T10:49:18.663Z,37.80
2023-05-01T10:52:04.470Z,37.61
2023-05-01T10:54:55.026Z,36.30
2023-05-01T10:57:47.209Z,34.37
2023-05-01T11:00:34.385Z,35.73
2023-05-01T11:03:26.135Z,35.55
2023-05-01T11:06:12.320Z,34.23
2023-05-01T11:08:58.222Z,32.32
2023-05-01T11:11:55.279Z,31.90
2023-05-01T11:15:11.795Z,30.80
2023-05-01T11:17:58.395Z,31.27
2023-05-01T11:20:48.948Z,29.68
2023-05-01T11:23:35.077Z,32.97
2023-05-01T11:26:23.345Z,31.24
2023-05-01T11:29:11.766Z,32.26
2023-05-01T11:31:57.763Z,31.28
2023-05-01T11:34:47.180Z,31.70
2023-05-01T11:37:44.276Z,29.39
2023-05-01T11:40:31.939Z,29.49
2023-05-01T11:43:18.194Z,29.66
2023-05-01T11:46:04.356Z,30.03
2023-05-01T11:48:54.468Z,30.64
2023-05-01T11:51:42.559Z,30.42
2023-05-01T11:54:28.418Z,31.44
2023-05-01T11:57:14.124Z,29.92
2023-05-01T12:00:02.243Z,31.40
2023-05-01T12:03:07.869Z,30.31
2023-05-01T12:06:05.045Z,29.21
2023-05-01T12:08:53.231Z,30.25
2023-05-01T12:11:40.312Z,30.18
2023-05-01T12:14:26.272Z,29.63
2023-05-01T12:17:12.296Z,29.83
2023-05-01T12:19:58.411Z,32.63
2023-05-01T12:22:50.979Z,33.34
2023-05-01T12:25:43.812Z,32.79
2023-05-01T12:28:31.646Z,34.10
2023-05-01T12:31:17.249Z,34.16
2023-05-01T12:34:05.024Z,33.15
2023-05-01T12:36:55.300Z,34.38
2023-05-01T12:39:45.129Z,33.88
2023-05-01T12:42:31.172Z,33.31
2023-05-01T12:45:19.520Z,33.93
2023-05-01T12:48:14.379Z,31.99
2023-05-01T12:51:01.160Z,32.47
2023-05-01T12:53:47.911Z,32.69
2023-05-01T12:56:33.560Z,31.65
2023-05-01T12:59:24.468Z,31.54
2023-05-01T13:02:12.723Z,31.30
2023-05-01T13:05:09.262Z,31.66
2023-05-01T13:07:54.930Z,31.15
2023-05-01T13:10:41.127Z,31.62
2023-05-01T13:13:31.918Z,32.04
2023-05-01T13:16:18.053Z,31.55
2023-05-01T13:19:06.296Z,32.34
2023-05-01T13:21:52.599Z,31.36
2023-05-01T13:24:44.697Z,32.36
2023-05-01T13:27:30.542Z,31.27
2023-05-01T13:30:22.002Z,31.22
2023-05-01T13:33:12.039Z,31.62
2023-05-01T13:36:14.190Z,32.01
2023-05-01T13:39:20.864Z,31.14
2023-05-01T13:42:11.292Z,32.24
2023-05-01T13:44:58.142Z,30.84
2023-05-01T13:47:46.647Z,30.87
2023-05-01T13:50:32.393Z,32.03
2023-05-01T13:53:17.931Z,30.49
2023-05-01T13:56:05.195Z,30.75
2023-05-01T13:58:51.451Z,30.58
2023-05-01T14:01:46.797Z,31.45
2023-05-01T14:04:37.884Z,31.36
2023-05-01T14:07:25.269Z,30.86
2023-05-01T14:10:11.166Z,30.92
2023-05-01T14:12:58.915Z,31.78
2023-05-01T14:15:44.300Z,31.72
2023-05-01T14:18:29.754Z,30.63
2023-05-01T14:21:17.090Z,31.13
2023-05-01T14:24:06.040Z,31.03
2023-05-01T14:26:52.305Z,31.25
2023-05-01T14:29:42.193Z,30.56
2023-05-01T14:32:29.975Z,31.34
2023-05-01T14:35:15.450Z,31.81
2023-05-01T14:38:12.995Z,32.08
2023-05-01T14:40:58.481Z,32.04
2023-05-01T14:43:44.437Z,31.74
2023-05-01T14:46:36.258Z,30.92
2023-05-01T14:49:26.834Z,30.78
2023-05-01T14:52:17.169Z,30.24
2023-05-01T14:55:03.386Z,30.33
2023-05-01T14:57:49.049Z,30.58
2023-05-01T15:00:34.554Z,30.69
2023-05-01T15:03:20.153Z,31.48
2023-05-01T15:06:07.582Z,31.44
2023-05-01T15:08:53.396Z,31.76
2023-05-01T15:11:38.856Z,31.28
2023-05-01T15:14:24.386Z,31.31
2023-05-01T15:17:10.727Z,29.95
2023-05-01T15:19:56.692Z,29.66
2023-05-01T15:22:42.377Z,29.27
2023-05-01T15:25:28.245Z,29.73
2023-05-01T15:28:14.305Z,29.28
2023-05-01T15:31:00.970Z,30.23
2023-05-01T15:33:46.772Z,31.36
2023-05-01T15:36:33.388Z,29.28
2023-05-01T15:39:20.209Z,29.71
2023-05-01T15:42:05.877Z,29.51
2023-05-01T15:44:51.404Z,29.39
2023-05-01T15:47:37.032Z,29.36
2023-05-01T15:50:24.460Z,29.56
2023-05-01T15:53:10.207Z,29.47
2023-05-01T15:55:59.048Z,30.19
2023-05-01T15:58:50.472Z,29.52
2023-05-01T16:01:36.343Z,29.60
2023-05-01T16:04:21.902Z,29.64
2023-05-01T16:07:08.969Z,29.74
2023-05-01T16:09:56.864Z,30.14
2023-05-01T16:12:42.623Z,29.79
2023-05-01T16:15:27.938Z,29.73
2023-05-01T16:18:20.190Z,29.69
2023-05-01T16:21:06.253Z,29.66
2023-05-01T16:23:55.402Z,29.92
2023-05-01T16:30:10.846Z,29.99
2023-05-01T16:32:56.954Z,30.35
2023-05-01T16:35:42.429Z,30.95
2023-05-01T16:38:27.869Z,30.74
2023-05-01T16:41:17.869Z,30.96
2023-05-01T16:44:03.602Z,30.79
2023-05-01T16:46:54.226Z,30.09
2023-05-01T16:49:57.627Z,30.54
2023-05-01T16:52:48.944Z,29.90
2023-05-01T16:55:34.536Z,30.07
2023-05-01T16:58:20.657Z,30.40
2023-05-01T17:01:15.754Z,30.36
2023-05-01T17:04:02.985Z,30.39
2023-05-01T17:07:52.518Z,30.14
2023-05-01T17:10:39.719Z,30.73
2023-05-01T17:13:27.857Z,30.59
2023-05-01T17:16:13.994Z,30.82
2023-05-01T17:18:59.518Z,32.49
2023-05-01T17:21:47.407Z,34.93
2023-05-01T17:25:32.892Z,35.81
2023-05-01T17:28:19.062Z,36.66
2023-05-01T17:31:36.579Z,36.54
2023-05-01T17:34:22.479Z,37.97
2023-05-01T17:37:13.821Z,38.47
2023-05-01T17:40:01.960Z,38.61
2023-05-01T17:42:48.292Z,38.55
2023-05-01T17:45:34.185Z,39.17
2023-05-01T17:48:20.480Z,39.25
2023-05-01T17:51:08.326Z,39.34
2023-05-01T17:53:59.833Z,39.26
2023-05-01T17:56:45.709Z,40.07
2023-05-01T17:59:33.605Z,40.22
2023-05-01T18:02:20.392Z,40.08
2023-05-01T18:05:06.759Z,40.46
2023-05-01T18:07:52.316Z,40.57
2023-05-01T18:10:38.772Z,40.62
2023-05-01T18:13:28.109Z,40.87
2023-05-01T18:17:12.900Z,41.93
2023-05-01T18:20:11.912Z,42.04
2023-05-01T18:22:57.947Z,42.71
2023-05-01T18:25:43.583Z,43.34
2023-05-01T18:28:29.059Z,43.51
2023-05-01T18:31:15.900Z,44.00
2023-05-01T18:34:10.115Z,43.94
2023-05-01T18:37:11.054Z,43.96
2023-05-01T18:40:30.164Z,44.23
2023-05-01T18:43:18.022Z,44.41
2023-05-01T18:46:25.768Z,45.62
2023-05-01T18:49:25.339Z,46.88
2023-05-01T18:52:24.268Z,47.49
2023-05-01T18:55:11.740Z,47.93
2023-05-01T18:57:57.551Z,47.74
2023-05-01T19:00:43.234Z,48.19
2023-05-01T19:03:28.827Z,48.97
2023-05-01T19:06:15.729Z,48.69
2023-05-01T19:09:01.718Z,48.56
2023-05-01T19:11:49.478Z,48.99
2023-05-01T19:14:35.333Z,49.11
2023-05-01T19:17:29.250Z,49.53
2023-05-01T19:20:18.083Z,50.50
2023-05-01T19:23:07.464Z,50.87
2023-05-01T19:25:59.728Z,51.39
2023-05-01T19:28:52.109Z,51.48
2023-05-01T19:31:39.104Z,51.44
2023-05-01T19:34:29.869Z,51.53
2023-05-01T19:37:27.855Z,51.14
2023-05-01T19:40:16.781Z,51.65
2023-05-01T19:43:07.371Z,51.72
2023-05-01T19:46:02.385Z,51.66
2023-05-01T19:49:00.134Z,51.28
2023-05-01T19:51:51.195Z,50.95
2023-05-01T19:54:44.420Z,51.45
2023-05-01T19:57:35.256Z,51.63
2023-05-01T20:00:21.775Z,51.39
2023-05-01T20:03:07.725Z,51.70
2023-05-01T20:05:56.827Z,50.99
2023-05-01T20:08:47.437Z,51.24
2023-05-01T20:11:33.336Z,51.56
2023-05-01T20:14:19.605Z,51.08
2023-05-01T20:17:07.122Z,50.82
2023-05-01T20:19:52.793Z,51.09
2023-05-01T20:22:38.168Z,51.79
2023-05-01T20:25:24.342Z,51.86
2023-05-01T20:28:12.957Z,52.71
2023-05-01T20:30:58.431Z,53.14
2023-05-01T20:33:47.390Z,52.30
2023-05-01T20:36:34.467Z,53.05
2023-05-01T20:39:26.653Z,52.78
2023-05-01T20:42:11.958Z,53.10
2023-05-01T20:44:57.509Z,52.59
2023-05-01T20:47:43.365Z,52.47
2023-05-01T20:50:29.572Z,52.07
2023-05-01T20:53:15.044Z,51.98
2023-05-01T20:56:00.458Z,52.54
2023-05-01T20:59:03.071Z,52.16
2023-05-01T21:02:04.776Z,52.14
2023-05-01T21:04:52.318Z,52.00
2023-05-01T21:07:39.025Z,51.52
2023-05-01T21:10:24.638Z,51.79
2023-05-01T21:13:10.038Z,52.24
2023-05-01T21:15:57.128Z,52.28
2023-05-01T21:18:48.502Z,52.07
2023-05-01T21:21:45.999Z,52.32
2023-05-01T21:24:31.723Z,52.92
2023-05-01T21:27:17.151Z,53.18
2023-05-01T21:30:05.364Z,52.60
2023-05-01T21:32:51.755Z,52.79
2023-05-01T21:35:41.881Z,52.53
2023-05-01T21:38:29.827Z,52.51
2023-05-01T21:41:18.018Z,52.46
2023-05-01T21:44:03.900Z,52.62
2023-05-01T21:46:56.542Z,52.44
2023-05-01T21:49:42.288Z,52.64
2023-05-01T21:52:29.377Z,52.79
2023-05-01T21:55:25.086Z,53.31
2023-05-01T21:58:12.741Z,52.33
2023-05-01T22:00:58.178Z,52.42
2023-05-01T22:03:44.582Z,52.43
2023-05-01T22:06:30.266Z,52.15
2023-05-01T22:09:20.521Z,51.91
2023-05-01T22:12:06.134Z,52.11
2023-05-01T22:14:52.062Z,52.72
2023-05-01T22:17:39.132Z,52.50
2023-05-01T22:20:30.764Z,53.11
2023-05-01T22:23:24.622Z,53.04
2023-05-01T22:26:15.145Z,53.11
2023-05-01T22:29:05.664Z,53.50
2023-05-01T22:31:51.290Z,53.64
2023-05-01T22:34:39.023Z,54.18
2023-05-01T22:37:25.916Z,54.19
2023-05-01T22:40:11.705Z,54.23
2023-05-01T22:42:57.690Z,54.32
2023-05-01T22:45:43.232Z,54.25
2023-05-01T22:48:32.142Z,53.83
2023-05-01T22:51:17.411Z,53.92
2023-05-01T22:54:03.628Z,53.74
2023-05-01T22:56:52.421Z,54.33
2023-05-01T22:59:39.584Z,54.08
2023-05-01T23:02:25.222Z,53.90
2023-05-01T23:05:11.586Z,54.27
2023-05-01T23:07:57.344Z,54.38
2023-05-01T23:10:46.520Z,54.33
2023-05-01T23:13:32.364Z,54.38
2023-05-01T23:16:18.488Z,54.58
2023-05-01T23:19:04.004Z,54.52
2023-05-01T23:21:54.774Z,54.85
2023-05-01T23:24:48.754Z,53.83
2023-05-01T23:27:42.309Z,54.16
2023-05-01T23:30:27.949Z,54.47
2023-05-01T23:33:18.295Z,54.82
2023-05-01T23:36:12.984Z,55.23
2023-05-01T23:38:58.516Z,55.27
2023-05-01T23:41:44.145Z,55.72
2023-05-01T23:44:30.400Z,55.33
2023-05-01T23:47:16.330Z,55.57
2023-05-01T23:50:05.285Z,55.32
2023-05-01T23:52:55.986Z,55.20
2023-05-01T23:55:46.977Z,55.39
2023-05-01T23:58:32.553Z,55.65
